Aviation Digital Data Service (ADDS)

Output produced by TAFs form (1253 UTC 26 March 2017)
found at http://www.aviationweather.gov/adds/tafs/
 
KGFL 261135Z 2612/2712 VRB04KT P6SM BKN090 
     FM261700 VRB03KT 6SM BR VCSH OVC050 
     TEMPO 2617/2620 6SM -FZRA OVC020 
     FM262000 18005KT 6SM -RA OVC020 
     FM270200 VRB03KT P6SM VCSH OVC008 
     PROB30 2702/2704 4SM -RA OVC003 
     FM270400 VRB03KT 6SM -RA OVC008